createdAt,value
2023-02-19T00:01:38.166Z,24.73
2023-02-19T00:04:17.297Z,29.70
2023-02-19T00:06:46.080Z,39.53
2023-02-19T00:09:14.949Z,24.23
2023-02-19T00:11:43.032Z,25.98
2023-02-19T00:14:14.702Z,24.58
2023-02-19T00:16:41.770Z,22.70
2023-02-19T00:19:15.930Z,20.02
2023-02-19T00:21:43.019Z,25.05
2023-02-19T00:24:13.087Z,20.88
2023-02-19T00:26:41.301Z,23.80
2023-02-19T00:29:09.871Z,19.45
2023-02-19T00:31:37.078Z,27.80
2023-02-19T00:34:06.160Z,26.02
2023-02-19T00:36:37.928Z,30.60
2023-02-19T00:39:08.338Z,23.27
2023-02-19T00:41:35.793Z,23.70
2023-02-19T00:44:05.444Z,26.13
2023-02-19T00:46:36.827Z,29.10
2023-02-19T00:49:05.608Z,36.42
2023-02-19T00:51:35.320Z,28.20
2023-02-19T00:54:04.103Z,39.03
2023-02-19T00:56:31.336Z,34.65
2023-02-19T00:58:58.689Z,40.85
2023-02-19T01:01:26.021Z,27.95
2023-02-19T01:03:53.156Z,31.75
2023-02-19T01:06:21.287Z,24.25
2023-02-19T01:08:49.455Z,32.17
2023-02-19T01:11:18.162Z,30.63
2023-02-19T01:13:45.213Z,32.05
2023-02-19T01:16:21.121Z,30.88
2023-02-19T01:18:49.102Z,35.03
2023-02-19T01:21:23.883Z,25.95
2023-02-19T01:23:52.282Z,34.28
2023-02-19T01:26:22.184Z,24.70
2023-02-19T01:28:49.500Z,23.38
2023-02-19T01:31:19.863Z,31.23
2023-02-19T01:33:47.988Z,23.05
2023-02-19T01:36:15.743Z,25.17
2023-02-19T01:38:43.248Z,25.65
2023-02-19T01:41:13.779Z,26.63
2023-02-19T01:43:56.160Z,28.88
2023-02-19T01:46:36.909Z,26.70
2023-02-19T01:49:14.461Z,29.88
2023-02-19T01:51:49.432Z,30.08
2023-02-19T01:54:21.911Z,32.58
2023-02-19T01:56:50.063Z,28.77
2023-02-19T01:59:18.496Z,28.38
2023-02-19T02:01:46.025Z,25.98
2023-02-19T02:04:15.666Z,22.30
2023-02-19T02:06:55.794Z,29.13
2023-02-19T02:09:46.234Z,25.05
2023-02-19T02:12:13.773Z,26.25
2023-02-19T02:14:44.275Z,32.53
2023-02-19T02:17:32.422Z,29.10
2023-02-19T02:20:14.643Z,19.88
2023-02-19T02:23:16.929Z,30.33
2023-02-19T02:25:59.118Z,33.80
2023-02-19T02:29:18.607Z,28.70
2023-02-19T02:32:03.938Z,27.10
2023-02-19T02:34:41.741Z,25.45
2023-02-19T02:37:10.935Z,26.63
2023-02-19T02:39:40.207Z,28.90
2023-02-19T02:42:26.386Z,24.70
2023-02-19T02:45:37.729Z,20.63
2023-02-19T02:48:39.069Z,26.95
2023-02-19T02:51:13.832Z,32.60
2023-02-19T02:54:28.826Z,39.72
2023-02-19T02:56:58.668Z,25.38
2023-02-19T02:59:34.125Z,30.02
2023-02-19T03:02:14.546Z,31.02
2023-02-19T03:05:22.584Z,31.08
2023-02-19T03:07:54.177Z,28.05
2023-02-19T03:10:36.688Z,21.73
2023-02-19T03:13:26.672Z,31.33
2023-02-19T03:16:23.751Z,27.10
2023-02-19T03:19:13.599Z,26.80
2023-02-19T03:21:43.718Z,37.25
2023-02-19T03:24:32.057Z,26.20
2023-02-19T03:27:02.124Z,33.85
2023-02-19T03:29:37.862Z,26.25
2023-02-19T03:32:28.129Z,28.35
2023-02-19T03:35:22.225Z,28.67
2023-02-19T03:38:18.750Z,28.15
2023-02-19T03:41:16.246Z,33.45
2023-02-19T03:43:56.696Z,34.05
2023-02-19T03:46:42.181Z,27.80
2023-02-19T03:49:33.471Z,36.42
2023-02-19T03:52:18.123Z,27.75
2023-02-19T03:55:10.467Z,17.58
2023-02-19T03:57:51.618Z,34.50
2023-02-19T04:00:32.666Z,23.27
2023-02-19T04:03:26.982Z,25.25
2023-02-19T04:06:01.627Z,36.20
2023-02-19T04:08:30.015Z,25.47
2023-02-19T04:11:03.219Z,26.27
2023-02-19T04:13:41.911Z,32.08
2023-02-19T04:16:17.502Z,36.55
2023-02-19T04:18:49.673Z,31.42
2023-02-19T04:21:17.930Z,35.55
2023-02-19T04:23:45.931Z,22.20
2023-02-19T04:26:15.437Z,24.25
2023-02-19T04:28:44.292Z,28.73
2023-02-19T04:31:11.892Z,32.38
2023-02-19T04:33:39.130Z,32.58
2023-02-19T04:36:07.854Z,22.98
2023-02-19T04:38:34.821Z,24.42
2023-02-19T04:41:02.009Z,28.98
2023-02-19T04:43:29.046Z,23.38
2023-02-19T04:46:00.911Z,27.23
2023-02-19T04:48:29.133Z,27.75
2023-02-19T04:50:56.411Z,31.08
2023-02-19T04:53:23.565Z,23.25
2023-02-19T04:55:53.427Z,30.48
2023-02-19T04:58:21.257Z,24.65
2023-02-19T05:00:52.638Z,28.80
2023-02-19T05:03:19.899Z,26.15
2023-02-19T05:05:47.157Z,21.88
2023-02-19T05:08:14.223Z,25.55
2023-02-19T05:10:41.696Z,23.75
2023-02-19T05:13:08.862Z,30.00
2023-02-19T05:15:36.237Z,27.67
2023-02-19T05:18:03.818Z,26.70
2023-02-19T05:20:30.830Z,23.65
2023-02-19T05:22:57.762Z,30.98
2023-02-19T05:25:24.730Z,30.35
2023-02-19T05:28:11.948Z,22.95
2023-02-19T05:30:38.991Z,20.75
2023-02-19T05:33:05.824Z,22.85
2023-02-19T05:35:32.878Z,26.92
2023-02-19T05:37:59.896Z,30.13
2023-02-19T05:40:27.183Z,30.42
2023-02-19T05:42:54.168Z,24.85
2023-02-19T05:45:21.370Z,20.42
2023-02-19T05:47:48.331Z,24.92
2023-02-19T05:50:15.347Z,22.42
2023-02-19T05:52:43.974Z,29.98
2023-02-19T05:55:12.009Z,23.77
2023-02-19T05:57:43.851Z,21.13
2023-02-19T06:00:18.006Z,19.67
2023-02-19T06:02:45.266Z,23.20
2023-02-19T06:05:12.842Z,20.27
2023-02-19T06:07:40.531Z,20.95
2023-02-19T06:10:08.123Z,21.60
2023-02-19T06:12:35.196Z,20.23
2023-02-19T06:15:02.684Z,24.17
2023-02-19T06:17:29.611Z,23.13
2023-02-19T06:19:56.689Z,20.73
2023-02-19T06:22:24.068Z,26.20
2023-02-19T06:24:51.110Z,25.52
2023-02-19T06:27:18.371Z,19.65
2023-02-19T06:29:45.387Z,25.88
2023-02-19T06:32:12.579Z,17.27
2023-02-19T06:34:39.619Z,20.70
2023-02-19T06:37:06.616Z,25.00
2023-02-19T06:39:33.631Z,27.45
2023-02-19T06:42:00.616Z,27.23
2023-02-19T06:44:28.078Z,30.23
2023-02-19T06:46:56.023Z,18.98
2023-02-19T06:49:23.033Z,20.20
2023-02-19T06:51:50.292Z,24.70
2023-02-19T06:54:17.334Z,25.70
2023-02-19T06:56:47.002Z,18.25
2023-02-19T06:59:18.920Z,22.55
2023-02-19T07:01:46.788Z,22.52
2023-02-19T07:04:14.165Z,19.25
2023-02-19T07:06:41.668Z,28.77
2023-02-19T07:09:09.752Z,19.73
2023-02-19T07:11:39.274Z,33.15
2023-02-19T07:14:08.649Z,30.33
2023-02-19T07:16:36.374Z,20.27
2023-02-19T07:19:04.167Z,16.92
2023-02-19T07:21:31.334Z,25.73
2023-02-19T07:23:59.018Z,27.42
2023-02-19T07:26:26.372Z,22.02
2023-02-19T07:28:53.447Z,35.35
2023-02-19T07:31:23.402Z,26.00
2023-02-19T07:33:51.257Z,22.73
2023-02-19T07:36:20.017Z,27.40
2023-02-19T07:38:47.261Z,23.23
2023-02-19T07:41:14.370Z,25.52
2023-02-19T07:43:41.448Z,19.92
2023-02-19T07:46:13.690Z,27.98
2023-02-19T07:48:42.754Z,23.30
2023-02-19T07:51:13.733Z,26.50
2023-02-19T07:53:41.016Z,25.77
2023-02-19T07:56:11.109Z,24.02
2023-02-19T07:58:38.768Z,20.20
2023-02-19T08:01:10.806Z,27.42
2023-02-19T08:03:38.629Z,23.55
2023-02-19T08:06:06.344Z,21.58
2023-02-19T08:08:33.439Z,22.98
2023-02-19T08:11:21.456Z,22.45
2023-02-19T08:13:50.654Z,18.45
2023-02-19T08:16:29.638Z,26.25
2023-02-19T08:19:00.418Z,33.83
2023-02-19T08:21:27.694Z,18.77
2023-02-19T08:23:54.662Z,22.75
2023-02-19T08:26:21.809Z,16.45
2023-02-19T08:28:49.329Z,19.55
2023-02-19T08:31:16.424Z,22.92
2023-02-19T08:33:43.787Z,18.65
2023-02-19T08:36:12.231Z,21.58
2023-02-19T08:38:39.214Z,20.80
2023-02-19T08:41:12.763Z,22.90
2023-02-19T08:43:41.529Z,17.65
2023-02-19T08:46:10.582Z,15.18
2023-02-19T08:48:38.911Z,19.23
2023-02-19T08:51:09.100Z,18.08
2023-02-19T08:53:37.874Z,17.38
2023-02-19T08:56:10.388Z,16.48
2023-02-19T08:58:38.178Z,22.58
2023-02-19T09:01:13.995Z,19.17
2023-02-19T09:03:41.817Z,20.35
2023-02-19T09:06:13.568Z,14.27
2023-02-19T09:08:40.590Z,16.27
2023-02-19T09:11:07.623Z,27.55
2023-02-19T09:13:34.637Z,25.85
2023-02-19T09:16:04.080Z,17.95
2023-02-19T09:18:33.506Z,20.30
2023-02-19T09:21:02.339Z,23.45
2023-02-19T09:23:29.481Z,18.42
2023-02-19T09:26:00.644Z,10.77
2023-02-19T09:28:28.326Z,14.45
2023-02-19T09:30:55.552Z,20.33
2023-02-19T09:33:22.814Z,14.55
2023-02-19T09:35:49.766Z,13.15
2023-02-19T09:38:16.695Z,13.70
2023-02-19T09:40:43.775Z,19.08
2023-02-19T09:43:18.124Z,20.90
2023-02-19T09:45:45.081Z,17.75
2023-02-19T09:48:12.895Z,16.92
2023-02-19T09:50:44.970Z,13.75
2023-02-19T09:53:20.349Z,21.70
2023-02-19T09:58:32.275Z,18.00
2023-02-19T10:01:02.257Z,18.37
2023-02-19T10:03:34.533Z,16.77
2023-02-19T10:06:06.383Z,22.45
2023-02-19T10:08:38.011Z,17.05
2023-02-19T10:11:06.816Z,20.50
2023-02-19T10:13:37.685Z,21.95
2023-02-19T10:16:07.992Z,15.02
2023-02-19T10:18:41.412Z,18.42
2023-02-19T10:21:22.105Z,13.00
2023-02-19T10:24:00.202Z,14.93
2023-02-19T10:26:28.946Z,17.48
2023-02-19T10:28:55.918Z,12.50
2023-02-19T10:31:26.351Z,13.55
2023-02-19T10:33:54.959Z,11.68
2023-02-19T10:36:32.154Z,14.68
2023-02-19T10:39:02.070Z,14.43
2023-02-19T10:41:30.055Z,14.30
2023-02-19T10:44:21.601Z,17.67
2023-02-19T10:46:52.005Z,11.88
2023-02-19T10:49:28.298Z,12.15
2023-02-19T10:51:58.228Z,10.07
2023-02-19T10:54:36.249Z,9.73
2023-02-19T10:57:15.805Z,13.48
2023-02-19T10:59:50.981Z,9.93
2023-02-19T11:02:20.452Z,13.05
2023-02-19T11:05:09.390Z,12.02
2023-02-19T11:07:37.705Z,12.68
2023-02-19T11:10:07.170Z,8.52
2023-02-19T11:12:35.355Z,14.40
2023-02-19T11:15:38.764Z,13.57
2023-02-19T11:18:14.958Z,9.38
2023-02-19T11:21:04.169Z,9.20
2023-02-19T11:23:36.138Z,8.52
2023-02-19T11:26:19.704Z,12.68
2023-02-19T11:28:57.033Z,8.48
2023-02-19T11:31:33.172Z,9.05
2023-02-19T11:34:01.389Z,8.02
2023-02-19T11:36:36.684Z,7.70
2023-02-19T11:39:15.898Z,10.98
2023-02-19T11:41:55.743Z,8.82
2023-02-19T11:44:41.852Z,14.38
2023-02-19T11:47:27.501Z,11.48
2023-02-19T11:50:01.051Z,7.22
2023-02-19T11:52:50.302Z,9.93
2023-02-19T11:55:39.794Z,10.65
2023-02-19T11:58:44.888Z,6.78
2023-02-19T12:01:46.830Z,5.47
2023-02-19T12:04:51.813Z,7.65
2023-02-19T12:07:23.117Z,8.25
2023-02-19T12:10:10.557Z,6.30
2023-02-19T12:12:37.973Z,8.40
2023-02-19T12:15:42.517Z,9.85
2023-02-19T12:18:46.693Z,9.55
2023-02-19T12:21:33.112Z,12.00
2023-02-19T12:24:25.557Z,11.55
2023-02-19T12:26:55.132Z,8.02
2023-02-19T12:29:41.033Z,11.38
2023-02-19T12:35:03.193Z,11.52
2023-02-19T12:38:08.929Z,11.75
2023-02-19T12:40:45.494Z,9.50
2023-02-19T12:43:21.873Z,10.73
2023-02-19T12:45:59.054Z,8.30
2023-02-19T12:49:04.070Z,12.52
2023-02-19T12:51:44.800Z,11.18
2023-02-19T12:54:27.050Z,9.93
2023-02-19T12:57:25.118Z,11.20
2023-02-19T12:59:57.809Z,7.72
2023-02-19T13:02:38.779Z,7.38
2023-02-19T13:05:35.130Z,13.38
2023-02-19T13:08:07.893Z,14.18
2023-02-19T13:10:56.731Z,15.43
2023-02-19T13:13:34.711Z,5.82
2023-02-19T13:16:13.914Z,12.70
2023-02-19T13:18:58.367Z,7.25
2023-02-19T13:21:48.959Z,9.55
2023-02-19T13:24:23.408Z,12.70
2023-02-19T13:27:18.202Z,9.95
2023-02-19T13:29:57.827Z,15.52
2023-02-19T13:32:54.610Z,14.93
2023-02-19T13:35:47.595Z,9.73
2023-02-19T13:38:15.769Z,8.07
2023-02-19T13:40:54.722Z,6.47
2023-02-19T13:43:38.703Z,7.65
2023-02-19T13:46:10.697Z,8.98
2023-02-19T13:48:40.467Z,11.23
2023-02-19T13:51:16.864Z,17.17
2023-02-19T13:53:48.090Z,9.18
2023-02-19T13:56:30.379Z,12.13
2023-02-19T13:59:12.669Z,10.48
2023-02-19T14:02:02.785Z,9.55
2023-02-19T14:04:43.856Z,11.93
2023-02-19T14:07:10.990Z,10.32
2023-02-19T14:09:39.572Z,12.88
2023-02-19T14:12:15.048Z,9.77
2023-02-19T14:14:49.330Z,8.05
2023-02-19T14:17:39.880Z,14.27
2023-02-19T14:20:09.955Z,10.45
2023-02-19T14:22:46.663Z,10.38
2023-02-19T14:25:29.051Z,7.50
2023-02-19T14:28:17.271Z,14.73
2023-02-19T14:31:05.881Z,8.45
2023-02-19T14:33:40.379Z,8.52
2023-02-19T14:36:44.483Z,15.30
2023-02-19T14:39:36.630Z,9.02
2023-02-19T14:42:14.298Z,11.90
2023-02-19T14:44:51.408Z,9.07
2023-02-19T14:47:24.476Z,10.48
2023-02-19T14:50:00.327Z,9.27
2023-02-19T14:52:43.663Z,10.88
2023-02-19T14:55:28.395Z,11.85
2023-02-19T14:57:59.028Z,9.75
2023-02-19T15:00:33.448Z,7.75
2023-02-19T15:03:02.565Z,5.70
2023-02-19T15:05:37.366Z,6.55
2023-02-19T15:08:10.072Z,11.85
2023-02-19T15:10:38.563Z,5.32
2023-02-19T15:13:12.452Z,9.55
2023-02-19T15:15:44.898Z,11.75
2023-02-19T15:18:21.517Z,10.82
2023-02-19T15:20:49.594Z,9.63
2023-02-19T15:23:23.825Z,18.95
2023-02-19T15:25:51.471Z,6.88
2023-02-19T15:28:31.174Z,9.75
2023-02-19T15:30:58.344Z,7.63
2023-02-19T15:33:29.902Z,9.20
2023-02-19T15:36:01.529Z,7.18
2023-02-19T15:38:29.745Z,7.25
2023-02-19T15:40:58.163Z,6.68
2023-02-19T15:43:34.958Z,9.38
2023-02-19T15:46:19.384Z,10.43
2023-02-19T15:48:58.688Z,13.27
2023-02-19T15:51:32.577Z,11.20
2023-02-19T15:54:12.022Z,11.02
2023-02-19T15:56:42.404Z,10.32
2023-02-19T15:59:40.833Z,11.18
2023-02-19T16:02:13.357Z,11.88
2023-02-19T16:04:42.575Z,10.90
2023-02-19T16:07:25.739Z,8.55
2023-02-19T16:10:22.709Z,8.88
2023-02-19T16:13:00.773Z,11.98
2023-02-19T16:15:30.420Z,13.75
2023-02-19T16:17:59.034Z,7.35
2023-02-19T16:20:32.102Z,11.80
2023-02-19T16:23:11.924Z,9.85
2023-02-19T16:25:44.864Z,9.98
2023-02-19T16:28:21.559Z,8.55
2023-02-19T16:30:56.214Z,8.15
2023-02-19T16:33:42.676Z,11.30
2023-02-19T16:36:36.996Z,17.27
2023-02-19T16:39:09.586Z,8.20
2023-02-19T16:41:39.686Z,11.73
2023-02-19T16:44:21.930Z,12.05
2023-02-19T16:46:58.531Z,11.93
2023-02-19T16:49:25.477Z,11.30
2023-02-19T16:51:54.149Z,16.10
2023-02-19T16:54:22.517Z,10.77
2023-02-19T16:56:49.460Z,11.68
2023-02-19T16:59:17.669Z,8.88
2023-02-19T17:01:44.754Z,10.32
2023-02-19T17:04:14.263Z,10.95
2023-02-19T17:06:41.800Z,10.50
2023-02-19T17:09:10.320Z,10.27
2023-02-19T17:11:37.393Z,10.63
2023-02-19T17:14:04.677Z,14.27
2023-02-19T17:16:40.219Z,13.88
2023-02-19T17:19:16.821Z,9.05
2023-02-19T17:21:45.606Z,15.85
2023-02-19T17:24:12.692Z,13.95
2023-02-19T17:26:39.785Z,9.75
2023-02-19T17:29:09.480Z,11.38
2023-02-19T17:31:36.633Z,10.93
2023-02-19T17:34:03.810Z,17.50
2023-02-19T17:36:32.759Z,11.95
2023-02-19T17:39:02.121Z,13.18
2023-02-19T17:41:29.648Z,15.32
2023-02-19T17:43:59.934Z,13.15
2023-02-19T17:46:27.741Z,11.75
2023-02-19T17:48:55.249Z,10.63
2023-02-19T17:51:22.507Z,16.30
2023-02-19T17:53:49.878Z,17.27
2023-02-19T17:56:22.199Z,18.33
2023-02-19T17:58:49.446Z,14.25
2023-02-19T18:01:16.956Z,14.93
2023-02-19T18:03:44.360Z,12.07
2023-02-19T18:06:11.895Z,14.00
2023-02-19T18:08:39.659Z,14.93
2023-02-19T18:11:09.770Z,19.50
2023-02-19T18:13:39.724Z,13.88
2023-02-19T18:16:07.018Z,18.08
2023-02-19T18:18:34.308Z,17.23
2023-02-19T18:21:01.339Z,11.18
2023-02-19T18:23:28.380Z,15.25
2023-02-19T18:25:55.354Z,14.88
2023-02-19T18:28:22.396Z,11.95
2023-02-19T18:30:49.528Z,13.65
2023-02-19T18:33:16.647Z,12.43
2023-02-19T18:35:43.683Z,14.65
2023-02-19T18:38:10.705Z,17.75
2023-02-19T18:40:37.699Z,12.65
2023-02-19T18:43:05.866Z,16.60
2023-02-19T18:45:35.682Z,18.23
2023-02-19T18:48:03.462Z,9.93
2023-02-19T18:50:30.656Z,10.52
2023-02-19T18:52:57.760Z,15.55
2023-02-19T18:55:24.819Z,15.13
2023-02-19T18:57:51.901Z,15.38
2023-02-19T19:00:22.859Z,14.63
2023-02-19T19:02:50.944Z,14.90
2023-02-19T19:05:23.254Z,15.20
2023-02-19T19:07:55.435Z,13.80
2023-02-19T19:10:24.178Z,12.73
2023-02-19T19:12:51.924Z,12.70
2023-02-19T19:15:19.185Z,16.98
2023-02-19T19:17:47.348Z,14.05
2023-02-19T19:20:17.306Z,13.35
2023-02-19T19:22:44.715Z,8.93
2023-02-19T19:25:12.046Z,10.68
2023-02-19T19:27:39.553Z,9.50
2023-02-19T19:30:08.060Z,10.43
2023-02-19T19:32:35.299Z,8.10
2023-02-19T19:35:02.434Z,9.20
2023-02-19T19:37:29.442Z,12.05
2023-02-19T19:39:57.131Z,10.48
2023-02-19T19:42:24.550Z,12.70
2023-02-19T19:44:51.495Z,7.85
2023-02-19T19:47:18.718Z,8.70
2023-02-19T19:49:47.394Z,10.07
2023-02-19T19:52:14.604Z,16.38
2023-02-19T19:54:44.962Z,11.07
2023-02-19T19:57:12.348Z,12.45
2023-02-19T19:59:39.656Z,12.40
2023-02-19T20:02:08.385Z,13.25
2023-02-19T20:04:35.658Z,15.90
2023-02-19T20:07:02.809Z,17.00
2023-02-19T20:09:30.052Z,13.40
2023-02-19T20:11:57.066Z,13.70
2023-02-19T20:14:25.357Z,14.18
2023-02-19T20:16:53.449Z,15.52
2023-02-19T20:19:21.154Z,13.13
2023-02-19T20:21:51.373Z,14.52
2023-02-19T20:24:24.582Z,17.92
2023-02-19T20:26:54.479Z,12.65
2023-02-19T20:29:22.001Z,14.73
2023-02-19T20:31:50.296Z,15.60
2023-02-19T20:34:18.258Z,16.38
2023-02-19T20:36:46.674Z,15.32
2023-02-19T20:39:16.014Z,13.23
2023-02-19T20:41:51.050Z,16.75
2023-02-19T20:44:19.080Z,14.25
2023-02-19T20:46:48.981Z,14.90
2023-02-19T20:49:17.852Z,11.98
2023-02-19T20:51:49.890Z,14.68
2023-02-19T20:54:18.426Z,19.05
2023-02-19T20:56:46.764Z,18.08
2023-02-19T20:59:15.220Z,15.30
2023-02-19T21:01:43.048Z,17.48
2023-02-19T21:04:10.872Z,16.90
2023-02-19T21:06:37.903Z,17.50
2023-02-19T21:09:05.842Z,20.13
2023-02-19T21:11:33.252Z,17.23
2023-02-19T21:14:00.400Z,17.08
2023-02-19T21:16:29.264Z,17.90
2023-02-19T21:18:57.251Z,18.38
2023-02-19T21:21:26.577Z,20.92
2023-02-19T21:23:59.034Z,15.93
2023-02-19T21:26:37.130Z,20.50
2023-02-19T21:29:06.952Z,24.40
2023-02-19T21:31:42.760Z,26.27
2023-02-19T21:34:11.935Z,20.48
2023-02-19T21:36:38.968Z,18.92
2023-02-19T21:39:07.974Z,20.02
2023-02-19T21:41:35.190Z,22.38
2023-02-19T21:44:02.738Z,22.95
2023-02-19T21:46:30.008Z,25.00
2023-02-19T21:48:57.445Z,18.80
2023-02-19T21:51:38.731Z,22.88
2023-02-19T21:54:07.615Z,24.45
2023-02-19T21:56:36.512Z,28.60
2023-02-19T21:59:03.920Z,26.20
2023-02-19T22:01:35.249Z,29.13
2023-02-19T22:04:02.562Z,19.33
2023-02-19T22:06:31.323Z,23.95
2023-02-19T22:08:59.561Z,23.92
2023-02-19T22:11:26.620Z,24.85
2023-02-19T22:13:55.337Z,26.60
2023-02-19T22:16:22.487Z,22.30
2023-02-19T22:18:51.369Z,22.20
2023-02-19T22:21:19.612Z,25.35
2023-02-19T22:23:48.280Z,26.35
2023-02-19T22:26:35.855Z,21.77
2023-02-19T22:29:07.407Z,25.48
2023-02-19T22:31:35.555Z,25.95
2023-02-19T22:34:03.028Z,22.55
2023-02-19T22:36:33.237Z,30.00
2023-02-19T22:39:01.370Z,26.10
2023-02-19T22:41:28.884Z,29.05
2023-02-19T22:43:57.952Z,24.45
2023-02-19T22:46:28.935Z,29.10
2023-02-19T22:48:56.370Z,23.38
2023-02-19T22:51:24.603Z,23.05
2023-02-19T22:53:54.293Z,27.02
2023-02-19T22:56:23.501Z,24.55
2023-02-19T22:58:50.945Z,25.52
2023-02-19T23:01:18.768Z,34.13
2023-02-19T23:03:53.685Z,30.38
2023-02-19T23:06:30.022Z,24.75
2023-02-19T23:09:02.064Z,32.13
2023-02-19T23:11:31.877Z,34.03
2023-02-19T23:13:59.203Z,34.05
2023-02-19T23:16:26.585Z,29.30
2023-02-19T23:18:54.111Z,28.98
2023-02-19T23:21:22.821Z,36.97
2023-02-19T23:23:49.952Z,38.22
2023-02-19T23:26:17.262Z,28.90
2023-02-19T23:28:47.693Z,33.42
2023-02-19T23:31:18.132Z,29.17
2023-02-19T23:33:45.917Z,36.92
2023-02-19T23:36:14.499Z,36.17
2023-02-19T23:38:47.173Z,37.60
2023-02-19T23:41:16.191Z,32.40
2023-02-19T23:43:45.260Z,35.20
2023-02-19T23:46:17.976Z,32.17
2023-02-19T23:48:48.533Z,42.88
2023-02-19T23:51:15.579Z,37.65
2023-02-19T23:53:42.766Z,38.60
2023-02-19T23:56:10.022Z,29.58
2023-02-19T23:58:36.995Z,35.45
